This is the latest recevied weather packets stored in our database for station/object DM3FAM-10. If no packets are shown the sender has not sent any weather packets the latest 10 day(s).
| Time | Temp. | Humidity | Pressure | Rain* | Wind** | Luminosity | Snow |
|---|---|---|---|---|---|---|---|
| 1777828056 | 17.22° C | 44% | 966.6 hPa | - | - | - | - |
| 1777827156 | 17.78° C | 42% | 966.7 hPa | - | - | - | - |
| 1777826256 | 17.78° C | 41% | 966.6 hPa | - | - | - | - |
| 1777825356 | 17.22° C | 43% | 966.6 hPa | - | - | - | - |
| 1777824456 | 18.33° C | 40% | 966.5 hPa | - | - | - | - |
| 1777823555 | 18.89° C | 37% | 966.5 hPa | - | - | - | - |
| 1777822655 | 19.44° C | 36% | 966.4 hPa | - | - | - | - |
| 1777821755 | 20.56° C | 35% | 966.2 hPa | - | - | - | - |
| 1777820855 | 21.11° C | 32% | 965.9 hPa | - | - | - | - |
| 1777819955 | 21.67° C | 30% | 965.9 hPa | - | - | - | - |
| 1777819055 | 24.44° C | 25% | 965.8 hPa | - | - | - | - |
| 1777818155 | 28.33° C | 23% | 965.6 hPa | - | - | - | - |
| 1777817255 | 28.33° C | 24% | 965.5 hPa | - | - | - | - |
| 1777816355 | 28.89° C | 22% | 965.5 hPa | - | - | - | - |
| 1777815455 | 30° C | 21% | 965.3 hPa | - | - | - | - |
| 1777814555 | 31.11° C | 20% | 965.5 hPa | - | - | - | - |
| 1777813654 | 33.89° C | 18% | 965.6 hPa | - | - | - | - |
| 1777812754 | 31.67° C | 23% | 965.7 hPa | - | - | - | - |
| 1777811854 | 26.67° C | 31% | 965.7 hPa | - | - | - | - |
| 1777810954 | 27.22° C | 29% | 965.7 hPa | - | - | - | - |
| 1777810054 | 25.56° C | 32% | 965.7 hPa | - | - | - | - |
| 1777809154 | 25.56° C | 34% | 965.5 hPa | - | - | - | - |
| 1777808254 | 26.11° C | 32% | 965.8 hPa | - | - | - | - |
| 1777807354 | 26.67° C | 29% | 965.7 hPa | - | - | - | - |
| 1777806454 | 25.56° C | 31% | 965.9 hPa | - | - | - | - |
* Rain since midnight (hover to see other rain measurements)
** Current wind speed in m/s (hover to see current wind gust speed)